Time;durP1;ratioP1;P1;durP2;ratioP2;P2;SDS_P1;SDS_P2;PMS_P1;PMS_P2;Temp;Humidity;BMP_temperature;BMP_pressure;BME280_temperature;BME280_humidity;BME280_pressure;Samples;Min_cycle;Max_cycle;Signal;HPM_P1;HPM_P2
2022/07/22 00:01:30;;;;;;;3.42;2.38;;;;;;;;;;5053078;28;20112;-47
2022/07/22 00:03:56;;;;;;;3.38;2.05;;;;;;;;;;5052581;28;20482;-46
2022/07/22 00:06:22;;;;;;;4.43;2.92;;;;;;;;;;5052864;28;20362;-48
2022/07/22 00:08:48;;;;;;;2.83;2.60;;;;;;;;;;5052700;28;20358;-46
2022/07/22 00:11:14;;;;;;;4.10;3.65;;;;;;;;;;5052809;28;20040;-45
2022/07/22 00:13:40;;;;;;;5.60;2.40;;;;;;;;;;5052510;28;20538;-48
2022/07/22 00:16:07;;;;;;;7.63;2.45;;;;;;;;;;5051388;28;20025;-45
2022/07/22 00:18:33;;;;;;;4.50;2.45;;;;;;;;;;5052557;28;20051;-46
2022/07/22 00:20:59;;;;;;;2.85;2.47;;;;;;;;;;5052939;28;20029;-46
2022/07/22 00:23:25;;;;;;;4.93;2.15;;;;;;;;;;5052717;28;20086;-47
2022/07/22 00:25:51;;;;;;;2.67;2.47;;;;;;;;;;5052854;28;20032;-47
2022/07/22 00:28:17;;;;;;;14.75;2.92;;;;;;;;;;5051734;28;20065;-46
2022/07/22 00:30:43;;;;;;;5.97;2.08;;;;;;;;;;5053334;28;20021;-46
2022/07/22 00:33:09;;;;;;;4.53;2.30;;;;;;;;;;5054902;28;20203;-47
2022/07/22 00:35:35;;;;;;;3.58;2.80;;;;;;;;;;5056760;28;20422;-46
2022/07/22 00:38:01;;;;;;;5.60;2.40;;;;;;;;;;5054713;28;20029;-47
2022/07/22 00:40:27;;;;;;;4.82;2.85;;;;;;;;;;5056123;28;20385;-47
2022/07/22 00:42:53;;;;;;;4.78;3.00;;;;;;;;;;5056156;28;20036;-47
2022/07/22 00:45:19;;;;;;;8.10;2.63;;;;;;;;;;5055833;28;20058;-46
2022/07/22 00:47:45;;;;;;;6.40;2.70;;;;;;;;;;5056099;28;20075;-45
2022/07/22 00:50:14;;;;;;;7.55;2.90;;;;;;;;;;5055965;28;20031;-45
2022/07/22 00:52:41;;;;;;;4.80;3.15;;;;;;;;;;5056200;28;20473;-46
2022/07/22 00:55:07;;;;;;;7.15;2.75;;;;;;;;;;5056366;28;20086;-45
2022/07/22 00:57:33;;;;;;;5.18;2.92;;;;;;;;;;5056094;28;20059;-44
2022/07/22 01:00:00;;;;;;;7.60;3.33;;;;;;;;;;5056285;28;20547;-46
2022/07/22 01:02:26;;;;;;;6.03;3.15;;;;;;;;;;5055830;28;20055;-45
2022/07/22 01:04:52;;;;;;;16.42;3.20;;;;;;;;;;5055753;28;20040;-46
2022/07/22 01:07:18;;;;;;;4.95;1.83;;;;;;;;;;5055883;28;20032;-45
2022/07/22 01:09:44;;;;;;;7.30;2.55;;;;;;;;;;5054301;28;20021;-47
2022/07/22 01:12:10;;;;;;;5.13;2.60;;;;;;;;;;5055409;28;20155;-47
2022/07/22 01:14:37;;;;;;;6.50;2.72;;;;;;;;;;5054274;28;20033;-47
2022/07/22 01:17:03;;;;;;;6.50;2.55;;;;;;;;;;5055453;28;20017;-45
2022/07/22 01:19:29;;;;;;;4.05;2.90;;;;;;;;;;5056111;28;20033;-45
2022/07/22 01:21:55;;;;;;;4.05;2.72;;;;;;;;;;5055262;28;20435;-47
2022/07/22 01:24:21;;;;;;;7.07;3.00;;;;;;;;;;5055251;28;20100;-45
2022/07/22 01:26:47;;;;;;;8.80;2.95;;;;;;;;;;5055229;28;20043;-47
2022/07/22 01:29:13;;;;;;;9.43;3.55;;;;;;;;;;5054247;28;20017;-46
2022/07/22 01:31:39;;;;;;;6.13;3.20;;;;;;;;;;5055357;28;20434;-47
2022/07/22 01:34:05;;;;;;;3.28;2.75;;;;;;;;;;5055323;28;20037;-47
2022/07/22 01:36:31;;;;;;;7.10;3.58;;;;;;;;;;5053925;28;20044;-48
2022/07/22 01:38:57;;;;;;;4.40;2.45;;;;;;;;;;5055209;28;20123;-47
2022/07/22 01:41:24;;;;;;;5.75;2.63;;;;;;;;;;5055107;28;20024;-45
2022/07/22 01:43:50;;;;;;;4.97;2.78;;;;;;;;;;5055009;28;20041;-48
2022/07/22 01:46:18;;;;;;;5.30;3.50;;;;;;;;;;5055589;28;20046;-46
2022/07/22 01:48:44;;;;;;;8.98;2.97;;;;;;;;;;5055098;28;20022;-46
2022/07/22 01:51:10;;;;;;;8.57;3.00;;;;;;;;;;5055127;28;20021;-46
2022/07/22 01:53:36;;;;;;;8.25;3.80;;;;;;;;;;5055409;28;20028;-45
2022/07/22 01:56:02;;;;;;;6.35;2.97;;;;;;;;;;5054765;28;20032;-47
2022/07/22 01:58:28;;;;;;;19.58;4.13;;;;;;;;;;5054780;28;20069;-47
2022/07/22 02:00:54;;;;;;;7.35;3.13;;;;;;;;;;5053755;28;20028;-46
2022/07/22 02:03:20;;;;;;;5.45;2.72;;;;;;;;;;5054660;28;20425;-46
2022/07/22 02:05:47;;;;;;;6.07;3.42;;;;;;;;;;5054526;28;20033;-46
2022/07/22 02:08:13;;;;;;;14.25;3.50;;;;;;;;;;5054520;28;20053;-47
2022/07/22 02:10:39;;;;;;;8.70;2.53;;;;;;;;;;5054790;28;20024;-46
2022/07/22 02:13:05;;;;;;;8.38;2.95;;;;;;;;;;5055111;28;20032;-47
2022/07/22 02:15:31;;;;;;;5.82;2.92;;;;;;;;;;5055159;28;20025;-47
2022/07/22 02:17:57;;;;;;;6.57;3.33;;;;;;;;;;5054557;28;20418;-46
2022/07/22 02:20:24;;;;;;;5.50;2.92;;;;;;;;;;5054537;28;20532;-46
2022/07/22 02:22:50;;;;;;;10.77;3.42;;;;;;;;;;5054284;28;20059;-47
2022/07/22 02:25:16;;;;;;;9.75;3.03;;;;;;;;;;5054025;28;20029;-49
2022/07/22 02:27:42;;;;;;;4.78;2.90;;;;;;;;;;5054475;28;20515;-46
2022/07/22 02:30:09;;;;;;;6.72;3.03;;;;;;;;;;5054040;28;20108;-46
2022/07/22 02:32:35;;;;;;;5.03;2.65;;;;;;;;;;5052637;28;20024;-46
2022/07/22 02:35:01;;;;;;;5.82;3.00;;;;;;;;;;5054926;28;20029;-48
2022/07/22 02:37:27;;;;;;;10.10;3.75;;;;;;;;;;5053838;28;20091;-46
2022/07/22 02:39:53;;;;;;;4.18;2.95;;;;;;;;;;5052474;28;20038;-45
2022/07/22 02:42:19;;;;;;;9.13;3.05;;;;;;;;;;5053847;28;20499;-45
2022/07/22 02:44:45;;;;;;;7.53;3.20;;;;;;;;;;5053493;28;20136;-45
2022/07/22 02:47:11;;;;;;;5.47;3.17;;;;;;;;;;5053951;28;20373;-46
2022/07/22 02:49:37;;;;;;;5.93;4.03;;;;;;;;;;5053938;28;20146;-46
2022/07/22 02:52:04;;;;;;;7.05;4.60;;;;;;;;;;5054008;28;20074;-46
2022/07/22 02:54:30;;;;;;;4.78;2.67;;;;;;;;;;5053388;28;20079;-48
2022/07/22 02:56:56;;;;;;;8.55;3.42;;;;;;;;;;5053713;28;20028;-47
2022/07/22 02:59:22;;;;;;;5.78;3.55;;;;;;;;;;5054451;28;20396;-47
2022/07/22 03:01:48;;;;;;;5.65;2.65;;;;;;;;;;5052173;28;20036;-47
2022/07/22 03:04:14;;;;;;;10.55;3.10;;;;;;;;;;5053455;28;20098;-47
2022/07/22 03:06:40;;;;;;;11.02;3.10;;;;;;;;;;5053485;28;20072;-45
2022/07/22 03:09:06;;;;;;;8.50;4.68;;;;;;;;;;5053708;28;20044;-45
2022/07/22 03:11:32;;;;;;;8.63;3.10;;;;;;;;;;5053389;28;20021;-47
2022/07/22 03:13:58;;;;;;;7.57;2.65;;;;;;;;;;5053558;28;20036;-46
2022/07/22 03:16:24;;;;;;;10.90;3.65;;;;;;;;;;5053247;28;20441;-46
2022/07/22 03:18:50;;;;;;;5.60;2.63;;;;;;;;;;5053354;28;20025;-46
2022/07/22 03:21:16;;;;;;;10.65;3.08;;;;;;;;;;5053754;28;20420;-47
2022/07/22 03:23:42;;;;;;;5.38;3.60;;;;;;;;;;5053498;28;20025;-46
2022/07/22 03:26:08;;;;;;;9.43;4.70;;;;;;;;;;5053764;28;20029;-45
2022/07/22 03:28:34;;;;;;;4.85;2.90;;;;;;;;;;5053907;28;20032;-47
2022/07/22 19:56:42;;;;;;;3.25;2.35;;;;;;;;;;5091244;27;20399;-45
2022/07/22 19:59:08;;;;;;;9.73;3.30;;;;;;;;;;5090617;28;20024;-46
2022/07/22 20:01:34;;;;;;;7.35;2.88;;;;;;;;;;5089440;28;20063;-47
2022/07/22 20:04:03;;;;;;;4.80;3.03;;;;;;;;;;5091321;28;20024;-47
2022/07/22 20:06:30;;;;;;;9.18;4.47;;;;;;;;;;5090311;28;20034;-46
2022/07/22 20:08:56;;;;;;;5.00;2.78;;;;;;;;;;5090108;28;20021;-45
2022/07/22 20:11:22;;;;;;;2.95;2.47;;;;;;;;;;5089985;28;20028;-46
2022/07/22 20:13:51;;;;;;;7.38;3.00;;;;;;;;;;5089987;28;20024;-46
2022/07/22 20:16:17;;;;;;;6.78;2.78;;;;;;;;;;5089981;28;20067;-46
2022/07/22 20:18:43;;;;;;;2.88;2.38;;;;;;;;;;5090308;28;20035;-46
2022/07/22 20:21:09;;;;;;;2.63;2.20;;;;;;;;;;5090276;28;20020;-47
2022/07/22 20:23:35;;;;;;;4.78;2.80;;;;;;;;;;5090948;28;20047;-46
2022/07/22 20:26:01;;;;;;;6.03;2.55;;;;;;;;;;5091201;28;20039;-40
2022/07/22 20:28:27;;;;;;;2.85;2.42;;;;;;;;;;5089628;28;20107;-39
2022/07/22 20:30:53;;;;;;;7.13;3.00;;;;;;;;;;5089094;28;20484;-39
2022/07/22 20:33:19;;;;;;;10.23;3.90;;;;;;;;;;5089766;28;20028;-38
2022/07/22 20:35:45;;;;;;;5.95;3.17;;;;;;;;;;5090087;28;20024;-38
2022/07/22 20:38:12;;;;;;;5.88;3.15;;;;;;;;;;5090143;28;20320;-38
2022/07/22 20:40:38;;;;;;;5.25;2.83;;;;;;;;;;5088610;28;20067;-39
2022/07/22 20:43:04;;;;;;;8.70;3.45;;;;;;;;;;5089584;28;20032;-40
2022/07/22 20:45:31;;;;;;;5.65;3.17;;;;;;;;;;5089598;28;20020;-40
2022/07/22 20:47:57;;;;;;;5.65;3.17;;;;;;;;;;5089801;28;20029;-39
2022/07/22 20:50:23;;;;;;;8.40;2.85;;;;;;;;;;5089747;28;20036;-39
2022/07/22 20:52:49;;;;;;;3.72;2.80;;;;;;;;;;5089401;28;20063;-38
2022/07/22 20:55:15;;;;;;;6.50;3.88;;;;;;;;;;5089577;28;20110;-39
2022/07/22 20:57:41;;;;;;;3.83;2.60;;;;;;;;;;5089243;28;20126;-39
2022/07/22 21:00:08;;;;;;;6.97;3.17;;;;;;;;;;5087947;28;20150;-39
2022/07/22 21:02:34;;;;;;;7.28;2.65;;;;;;;;;;5089077;28;20044;-39
2022/07/22 21:05:02;;;;;;;5.93;2.45;;;;;;;;;;5090196;28;20050;-38
2022/07/22 21:07:28;;;;;;;4.30;2.70;;;;;;;;;;5079105;28;20020;-39
2022/07/22 21:09:54;;;;;;;5.90;2.60;;;;;;;;;;5076291;28;20027;-39
2022/07/22 21:12:20;;;;;;;4.90;2.78;;;;;;;;;;5076369;28;20453;-38
2022/07/22 21:14:46;;;;;;;6.10;3.10;;;;;;;;;;5074344;28;20024;-38
2022/07/22 21:17:12;;;;;;;5.38;2.90;;;;;;;;;;5075538;28;20032;-38
2022/07/22 21:19:38;;;;;;;6.32;3.33;;;;;;;;;;5075452;28;20020;-39
2022/07/22 21:22:04;;;;;;;8.68;3.40;;;;;;;;;;5075559;28;20032;-38
2022/07/22 21:24:30;;;;;;;6.75;2.80;;;;;;;;;;5075351;28;20032;-39
2022/07/22 21:26:56;;;;;;;8.52;3.13;;;;;;;;;;5075900;28;20028;-39
2022/07/22 21:29:22;;;;;;;6.68;2.92;;;;;;;;;;5074324;28;20021;-39
2022/07/22 21:31:48;;;;;;;5.47;3.05;;;;;;;;;;5075353;28;20029;-38
2022/07/22 21:34:15;;;;;;;6.15;3.15;;;;;;;;;;5076041;28;20020;-39
2022/07/22 21:36:41;;;;;;;3.30;2.90;;;;;;;;;;5075090;28;20040;-38
2022/07/22 21:39:07;;;;;;;5.70;3.20;;;;;;;;;;5073581;28;20048;-39
2022/07/22 21:41:33;;;;;;;5.20;2.90;;;;;;;;;;5075009;28;20025;-39
2022/07/22 21:43:59;;;;;;;8.38;3.70;;;;;;;;;;5074951;28;20201;-40
2022/07/22 21:46:25;;;;;;;12.40;3.40;;;;;;;;;;5075122;28;20430;-40
2022/07/22 21:48:51;;;;;;;11.00;4.32;;;;;;;;;;5074781;28;20024;-38
2022/07/22 21:51:17;;;;;;;6.78;3.05;;;;;;;;;;5075090;28;20082;-38
2022/07/22 21:53:43;;;;;;;11.10;4.95;;;;;;;;;;5075689;28;20477;-39
2022/07/22 21:58:53;;;;;;;8.60;3.47;;;;;;;;;;5075238;28;20446;-40
2022/07/22 22:01:22;;;;;;;4.72;3.60;;;;;;;;;;5074700;28;20020;-39
2022/07/22 22:03:48;;;;;;;7.82;3.28;;;;;;;;;;5073506;28;20029;-40
2022/07/22 22:06:14;;;;;;;4.95;3.10;;;;;;;;;;5074880;28;20032;-39
2022/07/22 22:08:40;;;;;;;6.35;3.60;;;;;;;;;;5074645;28;20073;-39
2022/07/22 22:11:06;;;;;;;5.72;3.00;;;;;;;;;;5074567;28;20028;-39
2022/07/22 22:13:32;;;;;;;6.45;3.10;;;;;;;;;;5074860;28;20415;-38
2022/07/22 22:15:59;;;;;;;4.35;3.22;;;;;;;;;;5074429;28;20032;-39
2022/07/22 22:18:25;;;;;;;9.30;4.13;;;;;;;;;;5072354;28;20024;-38
2022/07/22 22:20:54;;;;;;;9.07;4.50;;;;;;;;;;5074904;28;20023;-38
2022/07/22 22:23:20;;;;;;;7.80;2.90;;;;;;;;;;5075160;28;20024;-40
2022/07/22 22:25:46;;;;;;;5.32;3.45;;;;;;;;;;5075824;28;20025;-38
2022/07/22 22:28:12;;;;;;;4.60;3.90;;;;;;;;;;5075303;28;20119;-39
2022/07/22 22:30:38;;;;;;;5.90;3.40;;;;;;;;;;5074467;28;20024;-39
2022/07/22 22:33:05;;;;;;;4.50;3.25;;;;;;;;;;5075168;28;20112;-39
2022/07/22 22:35:31;;;;;;;7.15;4.32;;;;;;;;;;5075046;28;20032;-39
2022/07/22 22:37:57;;;;;;;4.35;2.70;;;;;;;;;;5074277;28;20025;-40
2022/07/22 22:40:23;;;;;;;6.53;3.70;;;;;;;;;;5074490;28;20035;-39
2022/07/22 22:42:49;;;;;;;9.40;3.50;;;;;;;;;;5075102;28;20029;-38
2022/07/22 22:45:15;;;;;;;4.78;3.42;;;;;;;;;;5072664;28;20060;-40
2022/07/22 22:47:41;;;;;;;9.75;3.65;;;;;;;;;;5074582;28;20105;-38
2022/07/22 22:50:08;;;;;;;4.47;3.50;;;;;;;;;;5075485;28;20035;-39
2022/07/22 22:52:34;;;;;;;5.18;2.63;;;;;;;;;;5075123;28;20037;-40
2022/07/22 22:55:00;;;;;;;5.03;3.55;;;;;;;;;;5072538;28;20044;-41
2022/07/22 22:57:26;;;;;;;4.45;2.72;;;;;;;;;;5074012;28;20456;-39
2022/07/22 22:59:52;;;;;;;3.80;3.03;;;;;;;;;;5074201;28;20074;-40
2022/07/22 23:02:18;;;;;;;9.75;3.83;;;;;;;;;;5072453;28;20033;-39
2022/07/22 23:04:44;;;;;;;4.20;3.05;;;;;;;;;;5074885;28;20422;-39
2022/07/22 23:07:10;;;;;;;8.18;3.70;;;;;;;;;;5076055;28;20036;-40
2022/07/22 23:09:36;;;;;;;13.23;3.95;;;;;;;;;;5076477;28;20055;-39
2022/07/22 23:12:02;;;;;;;4.47;2.95;;;;;;;;;;5075979;28;20039;-38
2022/07/22 23:14:29;;;;;;;5.32;3.50;;;;;;;;;;5074980;28;20035;-39
2022/07/22 23:16:55;;;;;;;7.68;3.35;;;;;;;;;;5076189;28;20021;-39
2022/07/22 23:19:21;;;;;;;6.22;3.53;;;;;;;;;;5076054;28;20405;-39
2022/07/22 23:21:47;;;;;;;5.28;3.90;;;;;;;;;;5076179;28;20031;-39
2022/07/22 23:24:13;;;;;;;7.68;3.45;;;;;;;;;;5076146;28;20024;-38
2022/07/22 23:26:39;;;;;;;5.03;3.85;;;;;;;;;;5075945;28;20063;-43
2022/07/22 23:29:05;;;;;;;6.70;3.40;;;;;;;;;;5075840;28;20032;-38
2022/07/22 23:31:31;;;;;;;6.75;4.25;;;;;;;;;;5075433;28;20025;-39
2022/07/22 23:33:57;;;;;;;5.35;3.85;;;;;;;;;;5075787;28;20028;-38
2022/07/22 23:36:24;;;;;;;6.57;4.15;;;;;;;;;;5075418;28;20074;-38
2022/07/22 23:38:50;;;;;;;8.55;4.25;;;;;;;;;;5074690;28;20055;-38
2022/07/22 23:41:16;;;;;;;5.07;3.78;;;;;;;;;;5075424;28;20035;-38
2022/07/22 23:43:42;;;;;;;7.75;4.03;;;;;;;;;;5075750;28;20017;-39
2022/07/22 23:46:08;;;;;;;7.05;4.18;;;;;;;;;;5073373;28;20025;-38
2022/07/22 23:48:34;;;;;;;6.57;5.07;;;;;;;;;;5073967;28;20031;-39
2022/07/22 23:51:00;;;;;;;7.57;3.53;;;;;;;;;;5074702;28;20021;-38
2022/07/22 23:53:26;;;;;;;7.43;4.10;;;;;;;;;;5074384;28;20597;-39
2022/07/22 23:55:52;;;;;;;9.35;4.72;;;;;;;;;;5072103;28;20439;-38
2022/07/22 23:58:18;;;;;;;6.90;4.40;;;;;;;;;;5073830;28;20020;-39
